sensor_id;sensor_type;location;lat;lon;timestamp;temperature;humidity
4755;DHT22;2391;47.212;7.542;2023-01-23T00:01:25;2.20;90.50
4755;DHT22;2391;47.212;7.542;2023-01-23T00:03:52;2.10;90.40
4755;DHT22;2391;47.212;7.542;2023-01-23T00:06:18;2.10;90.60
4755;DHT22;2391;47.212;7.542;2023-01-23T00:08:45;2.10;90.60
4755;DHT22;2391;47.212;7.542;2023-01-23T00:11:14;2.10;90.50
4755;DHT22;2391;47.212;7.542;2023-01-23T00:13:40;2.10;90.50
4755;DHT22;2391;47.212;7.542;2023-01-23T00:16:08;2.00;90.60
4755;DHT22;2391;47.212;7.542;2023-01-23T00:18:35;2.10;90.80
4755;DHT22;2391;47.212;7.542;2023-01-23T00:21:10;2.20;90.70
4755;DHT22;2391;47.212;7.542;2023-01-23T00:23:36;2.10;90.60
4755;DHT22;2391;47.212;7.542;2023-01-23T00:26:07;2.10;90.40
4755;DHT22;2391;47.212;7.542;2023-01-23T00:28:35;2.10;90.60
4755;DHT22;2391;47.212;7.542;2023-01-23T00:31:06;2.00;90.60
4755;DHT22;2391;47.212;7.542;2023-01-23T00:33:32;2.10;90.80
4755;DHT22;2391;47.212;7.542;2023-01-23T00:35:59;2.10;90.80
4755;DHT22;2391;47.212;7.542;2023-01-23T00:38:25;2.10;90.80
4755;DHT22;2391;47.212;7.542;2023-01-23T00:40:52;2.10;90.90
4755;DHT22;2391;47.212;7.542;2023-01-23T00:43:19;2.20;90.90
4755;DHT22;2391;47.212;7.542;2023-01-23T00:45:46;2.10;90.90
4755;DHT22;2391;47.212;7.542;2023-01-23T00:48:12;2.10;90.90
4755;DHT22;2391;47.212;7.542;2023-01-23T00:50:38;2.10;90.90
4755;DHT22;2391;47.212;7.542;2023-01-23T00:53:03;2.00;91.00
4755;DHT22;2391;47.212;7.542;2023-01-23T00:55:29;2.10;91.10
4755;DHT22;2391;47.212;7.542;2023-01-23T00:57:55;2.10;91.10
4755;DHT22;2391;47.212;7.542;2023-01-23T01:00:21;2.00;91.10
4755;DHT22;2391;47.212;7.542;2023-01-23T01:02:46;2.00;91.20
4755;DHT22;2391;47.212;7.542;2023-01-23T01:05:12;1.90;91.20
4755;DHT22;2391;47.212;7.542;2023-01-23T01:07:38;1.90;91.30
4755;DHT22;2391;47.212;7.542;2023-01-23T01:10:05;1.90;91.30
4755;DHT22;2391;47.212;7.542;2023-01-23T01:12:31;1.90;91.30
4755;DHT22;2391;47.212;7.542;2023-01-23T01:14:56;1.90;91.40
4755;DHT22;2391;47.212;7.542;2023-01-23T01:17:22;1.90;91.30
4755;DHT22;2391;47.212;7.542;2023-01-23T01:19:48;1.80;91.50
4755;DHT22;2391;47.212;7.542;2023-01-23T01:22:13;1.90;91.20
4755;DHT22;2391;47.212;7.542;2023-01-23T01:24:42;1.90;91.20
4755;DHT22;2391;47.212;7.542;2023-01-23T01:27:08;1.90;91.20
4755;DHT22;2391;47.212;7.542;2023-01-23T01:29:37;1.90;91.20
4755;DHT22;2391;47.212;7.542;2023-01-23T01:32:03;1.90;91.30
4755;DHT22;2391;47.212;7.542;2023-01-23T01:34:29;2.00;91.30
4755;DHT22;2391;47.212;7.542;2023-01-23T01:36:55;2.00;91.30
4755;DHT22;2391;47.212;7.542;2023-01-23T01:39:20;2.00;91.10
4755;DHT22;2391;47.212;7.542;2023-01-23T01:41:46;1.90;91.10
4755;DHT22;2391;47.212;7.542;2023-01-23T01:44:15;1.90;91.00
4755;DHT22;2391;47.212;7.542;2023-01-23T01:46:42;1.90;91.00
4755;DHT22;2391;47.212;7.542;2023-01-23T01:49:12;2.00;90.80
4755;DHT22;2391;47.212;7.542;2023-01-23T01:57:28;2.00;90.90
4755;DHT22;2391;47.212;7.542;2023-01-23T02:00:01;2.00;91.00
4755;DHT22;2391;47.212;7.542;2023-01-23T02:02:29;2.10;90.90
4755;DHT22;2391;47.212;7.542;2023-01-23T02:05:08;2.10;90.90
4755;DHT22;2391;47.212;7.542;2023-01-23T02:07:34;2.20;90.80
4755;DHT22;2391;47.212;7.542;2023-01-23T02:10:04;2.20;90.60
4755;DHT22;2391;47.212;7.542;2023-01-23T02:12:30;2.20;90.60
4755;DHT22;2391;47.212;7.542;2023-01-23T02:14:59;2.00;90.50
4755;DHT22;2391;47.212;7.542;2023-01-23T02:17:25;2.00;90.60
4755;DHT22;2391;47.212;7.542;2023-01-23T02:20:04;2.00;90.70
4755;DHT22;2391;47.212;7.542;2023-01-23T02:25:24;1.90;91.20
4755;DHT22;2391;47.212;7.542;2023-01-23T02:27:34;1.90;91.50
4755;DHT22;2391;47.212;7.542;2023-01-23T02:29:59;1.90;91.80
4755;DHT22;2391;47.212;7.542;2023-01-23T02:32:25;1.80;92.20
4755;DHT22;2391;47.212;7.542;2023-01-23T02:34:54;1.70;92.50
4755;DHT22;2391;47.212;7.542;2023-01-23T02:37:23;1.60;93.00
4755;DHT22;2391;47.212;7.542;2023-01-23T02:39:52;1.60;93.20
4755;DHT22;2391;47.212;7.542;2023-01-23T02:42:19;1.60;93.40
4755;DHT22;2391;47.212;7.542;2023-01-23T02:44:46;1.60;93.30
4755;DHT22;2391;47.212;7.542;2023-01-23T02:47:12;1.60;93.30
4755;DHT22;2391;47.212;7.542;2023-01-23T02:49:38;1.60;93.30
4755;DHT22;2391;47.212;7.542;2023-01-23T02:52:05;1.70;93.20
4755;DHT22;2391;47.212;7.542;2023-01-23T02:54:31;1.70;93.10
4755;DHT22;2391;47.212;7.542;2023-01-23T02:56:57;1.70;93.10
4755;DHT22;2391;47.212;7.542;2023-01-23T02:59:23;1.80;93.00
4755;DHT22;2391;47.212;7.542;2023-01-23T03:02:08;1.80;92.90
4755;DHT22;2391;47.212;7.542;2023-01-23T03:04:34;1.80;92.80
4755;DHT22;2391;47.212;7.542;2023-01-23T03:07:00;1.80;92.90
4755;DHT22;2391;47.212;7.542;2023-01-23T03:09:26;1.90;92.90
4755;DHT22;2391;47.212;7.542;2023-01-23T03:11:52;1.90;92.80
4755;DHT22;2391;47.212;7.542;2023-01-23T03:14:20;1.90;92.70
4755;DHT22;2391;47.212;7.542;2023-01-23T03:16:46;1.90;92.70
4755;DHT22;2391;47.212;7.542;2023-01-23T03:19:14;1.80;92.70
4755;DHT22;2391;47.212;7.542;2023-01-23T03:21:40;1.80;92.60
4755;DHT22;2391;47.212;7.542;2023-01-23T03:24:08;1.80;92.40
4755;DHT22;2391;47.212;7.542;2023-01-23T03:26:37;1.80;92.20
4755;DHT22;2391;47.212;7.542;2023-01-23T03:29:03;1.80;92.10
4755;DHT22;2391;47.212;7.542;2023-01-23T03:31:48;1.80;92.10
4755;DHT22;2391;47.212;7.542;2023-01-23T03:34:14;1.80;91.90
4755;DHT22;2391;47.212;7.542;2023-01-23T03:36:41;1.80;91.80
4755;DHT22;2391;47.212;7.542;2023-01-23T03:39:07;1.80;91.70
4755;DHT22;2391;47.212;7.542;2023-01-23T03:41:52;1.90;91.70
4755;DHT22;2391;47.212;7.542;2023-01-23T03:44:19;2.00;91.50
4755;DHT22;2391;47.212;7.542;2023-01-23T03:46:50;1.90;91.30
4755;DHT22;2391;47.212;7.542;2023-01-23T03:49:16;1.90;91.40
4755;DHT22;2391;47.212;7.542;2023-01-23T03:51:42;2.00;91.50
4755;DHT22;2391;47.212;7.542;2023-01-23T03:54:09;2.00;91.60
4755;DHT22;2391;47.212;7.542;2023-01-23T03:56:36;2.10;92.20
4755;DHT22;2391;47.212;7.542;2023-01-23T03:59:02;2.00;91.90
4755;DHT22;2391;47.212;7.542;2023-01-23T04:01:28;2.00;92.20
4755;DHT22;2391;47.212;7.542;2023-01-23T04:03:54;2.00;92.40
4755;DHT22;2391;47.212;7.542;2023-01-23T04:06:20;1.90;92.40
4755;DHT22;2391;47.212;7.542;2023-01-23T04:08:46;1.90;92.40
4755;DHT22;2391;47.212;7.542;2023-01-23T04:11:12;1.80;92.50
4755;DHT22;2391;47.212;7.542;2023-01-23T04:13:38;1.80;92.60
4755;DHT22;2391;47.212;7.542;2023-01-23T04:16:04;1.90;92.80
4755;DHT22;2391;47.212;7.542;2023-01-23T04:18:31;1.90;92.10
4755;DHT22;2391;47.212;7.542;2023-01-23T04:20:57;1.80;91.90
4755;DHT22;2391;47.212;7.542;2023-01-23T04:23:23;1.70;92.00
4755;DHT22;2391;47.212;7.542;2023-01-23T04:25:49;1.70;92.00
4755;DHT22;2391;47.212;7.542;2023-01-23T04:28:16;1.80;91.90
4755;DHT22;2391;47.212;7.542;2023-01-23T04:30:42;1.70;91.80
4755;DHT22;2391;47.212;7.542;2023-01-23T04:33:09;1.80;91.70
4755;DHT22;2391;47.212;7.542;2023-01-23T04:35:35;1.80;91.50
4755;DHT22;2391;47.212;7.542;2023-01-23T04:38:01;1.90;91.40
4755;DHT22;2391;47.212;7.542;2023-01-23T04:40:27;1.80;91.40
4755;DHT22;2391;47.212;7.542;2023-01-23T04:42:52;1.70;91.50
4755;DHT22;2391;47.212;7.542;2023-01-23T04:45:18;1.80;91.60
4755;DHT22;2391;47.212;7.542;2023-01-23T04:47:44;1.80;91.60
4755;DHT22;2391;47.212;7.542;2023-01-23T04:50:10;1.90;91.70
4755;DHT22;2391;47.212;7.542;2023-01-23T04:52:36;1.90;91.50
4755;DHT22;2391;47.212;7.542;2023-01-23T04:55:03;1.80;91.50
4755;DHT22;2391;47.212;7.542;2023-01-23T04:57:29;1.70;91.50
4755;DHT22;2391;47.212;7.542;2023-01-23T04:59:54;1.70;91.60
4755;DHT22;2391;47.212;7.542;2023-01-23T05:02:20;1.70;91.60
4755;DHT22;2391;47.212;7.542;2023-01-23T05:04:46;1.70;91.70
4755;DHT22;2391;47.212;7.542;2023-01-23T05:07:12;1.70;91.70
4755;DHT22;2391;47.212;7.542;2023-01-23T05:09:38;1.80;91.60
4755;DHT22;2391;47.212;7.542;2023-01-23T05:12:04;1.80;91.60
4755;DHT22;2391;47.212;7.542;2023-01-23T05:14:30;1.80;91.60
4755;DHT22;2391;47.212;7.542;2023-01-23T05:16:56;1.80;91.60
4755;DHT22;2391;47.212;7.542;2023-01-23T05:19:22;1.80;91.40
4755;DHT22;2391;47.212;7.542;2023-01-23T05:21:48;1.70;91.30
4755;DHT22;2391;47.212;7.542;2023-01-23T05:24:13;1.70;91.30
4755;DHT22;2391;47.212;7.542;2023-01-23T05:26:39;1.70;91.40
4755;DHT22;2391;47.212;7.542;2023-01-23T05:29:05;1.60;91.40
4755;DHT22;2391;47.212;7.542;2023-01-23T05:31:31;1.50;91.20
4755;DHT22;2391;47.212;7.542;2023-01-23T05:33:57;1.50;91.30
4755;DHT22;2391;47.212;7.542;2023-01-23T05:36:22;1.50;91.20
4755;DHT22;2391;47.212;7.542;2023-01-23T05:38:48;1.50;90.80
4755;DHT22;2391;47.212;7.542;2023-01-23T05:41:14;1.50;90.90
4755;DHT22;2391;47.212;7.542;2023-01-23T05:43:40;1.50;90.70
4755;DHT22;2391;47.212;7.542;2023-01-23T05:46:05;1.50;90.60
4755;DHT22;2391;47.212;7.542;2023-01-23T05:48:31;1.50;90.60
4755;DHT22;2391;47.212;7.542;2023-01-23T05:50:57;1.50;90.50
4755;DHT22;2391;47.212;7.542;2023-01-23T05:53:23;1.50;90.60
4755;DHT22;2391;47.212;7.542;2023-01-23T05:55:49;1.50;90.50
4755;DHT22;2391;47.212;7.542;2023-01-23T05:58:14;1.50;90.60
4755;DHT22;2391;47.212;7.542;2023-01-23T06:00:40;1.40;90.60
4755;DHT22;2391;47.212;7.542;2023-01-23T06:03:06;1.40;90.70
4755;DHT22;2391;47.212;7.542;2023-01-23T06:05:31;1.30;90.60
4755;DHT22;2391;47.212;7.542;2023-01-23T06:07:57;1.30;90.70
4755;DHT22;2391;47.212;7.542;2023-01-23T06:10:23;1.30;90.90
4755;DHT22;2391;47.212;7.542;2023-01-23T06:12:49;1.30;91.20
4755;DHT22;2391;47.212;7.542;2023-01-23T06:15:14;1.30;91.20
4755;DHT22;2391;47.212;7.542;2023-01-23T06:17:40;1.20;91.30
4755;DHT22;2391;47.212;7.542;2023-01-23T06:20:07;1.20;91.40
4755;DHT22;2391;47.212;7.542;2023-01-23T06:22:33;1.10;91.30
4755;DHT22;2391;47.212;7.542;2023-01-23T06:24:58;1.00;91.40
4755;DHT22;2391;47.212;7.542;2023-01-23T06:27:24;1.00;91.50
4755;DHT22;2391;47.212;7.542;2023-01-23T06:29:50;1.00;91.30
4755;DHT22;2391;47.212;7.542;2023-01-23T06:32:15;1.00;91.30
4755;DHT22;2391;47.212;7.542;2023-01-23T06:34:41;1.00;91.30
4755;DHT22;2391;47.212;7.542;2023-01-23T06:37:07;1.00;91.30
4755;DHT22;2391;47.212;7.542;2023-01-23T06:39:33;1.00;91.40
4755;DHT22;2391;47.212;7.542;2023-01-23T06:41:59;1.00;91.50
4755;DHT22;2391;47.212;7.542;2023-01-23T06:44:24;1.00;91.50
4755;DHT22;2391;47.212;7.542;2023-01-23T06:46:53;1.00;91.30
4755;DHT22;2391;47.212;7.542;2023-01-23T06:49:19;1.10;91.20
4755;DHT22;2391;47.212;7.542;2023-01-23T06:51:45;1.10;91.20
4755;DHT22;2391;47.212;7.542;2023-01-23T06:54:10;1.10;91.30
4755;DHT22;2391;47.212;7.542;2023-01-23T06:56:36;1.00;91.30
4755;DHT22;2391;47.212;7.542;2023-01-23T06:59:02;1.00;91.20
4755;DHT22;2391;47.212;7.542;2023-01-23T07:01:27;1.10;91.30
4755;DHT22;2391;47.212;7.542;2023-01-23T07:03:53;1.20;91.30
4755;DHT22;2391;47.212;7.542;2023-01-23T07:06:19;1.20;91.30
4755;DHT22;2391;47.212;7.542;2023-01-23T07:08:45;1.10;91.30
4755;DHT22;2391;47.212;7.542;2023-01-23T07:11:11;1.10;91.20
4755;DHT22;2391;47.212;7.542;2023-01-23T07:13:37;1.20;91.40
4755;DHT22;2391;47.212;7.542;2023-01-23T07:16:03;1.20;91.70
4755;DHT22;2391;47.212;7.542;2023-01-23T07:18:29;1.20;91.70
4755;DHT22;2391;47.212;7.542;2023-01-23T07:20:57;1.20;91.80
4755;DHT22;2391;47.212;7.542;2023-01-23T07:23:23;1.10;91.90
4755;DHT22;2391;47.212;7.542;2023-01-23T07:25:48;1.00;92.20
4755;DHT22;2391;47.212;7.542;2023-01-23T07:28:15;0.90;92.30
4755;DHT22;2391;47.212;7.542;2023-01-23T07:30:40;0.80;92.40
4755;DHT22;2391;47.212;7.542;2023-01-23T07:33:06;0.80;92.50
4755;DHT22;2391;47.212;7.542;2023-01-23T07:35:32;0.80;92.60
4755;DHT22;2391;47.212;7.542;2023-01-23T07:37:58;0.70;92.60
4755;DHT22;2391;47.212;7.542;2023-01-23T07:40:24;0.70;92.50
4755;DHT22;2391;47.212;7.542;2023-01-23T07:42:50;0.70;92.10
4755;DHT22;2391;47.212;7.542;2023-01-23T07:45:15;0.70;91.90
4755;DHT22;2391;47.212;7.542;2023-01-23T07:47:41;0.70;92.00
4755;DHT22;2391;47.212;7.542;2023-01-23T07:50:10;0.70;92.00
4755;DHT22;2391;47.212;7.542;2023-01-23T07:52:36;0.80;92.00
4755;DHT22;2391;47.212;7.542;2023-01-23T07:55:03;0.80;92.10
4755;DHT22;2391;47.212;7.542;2023-01-23T07:57:29;0.80;92.20
4755;DHT22;2391;47.212;7.542;2023-01-23T07:59:55;0.80;92.20
4755;DHT22;2391;47.212;7.542;2023-01-23T08:02:20;0.80;92.20
4755;DHT22;2391;47.212;7.542;2023-01-23T08:04:46;0.80;92.30
4755;DHT22;2391;47.212;7.542;2023-01-23T08:07:12;0.80;92.20
4755;DHT22;2391;47.212;7.542;2023-01-23T08:09:38;0.80;92.20
4755;DHT22;2391;47.212;7.542;2023-01-23T08:12:05;0.80;92.30
4755;DHT22;2391;47.212;7.542;2023-01-23T08:14:31;0.70;92.30
4755;DHT22;2391;47.212;7.542;2023-01-23T08:16:57;0.60;92.40
4755;DHT22;2391;47.212;7.542;2023-01-23T08:19:23;0.40;92.70
4755;DHT22;2391;47.212;7.542;2023-01-23T08:21:50;0.40;93.00
4755;DHT22;2391;47.212;7.542;2023-01-23T08:24:16;0.40;93.10
4755;DHT22;2391;47.212;7.542;2023-01-23T08:26:42;0.40;93.10
4755;DHT22;2391;47.212;7.542;2023-01-23T08:29:08;0.50;93.10
4755;DHT22;2391;47.212;7.542;2023-01-23T08:31:35;0.60;93.00
4755;DHT22;2391;47.212;7.542;2023-01-23T08:34:02;0.60;93.10
4755;DHT22;2391;47.212;7.542;2023-01-23T08:36:28;0.60;93.10
4755;DHT22;2391;47.212;7.542;2023-01-23T08:38:53;0.50;93.10
4755;DHT22;2391;47.212;7.542;2023-01-23T08:41:20;0.50;93.30
4755;DHT22;2391;47.212;7.542;2023-01-23T08:43:48;0.50;93.30
4755;DHT22;2391;47.212;7.542;2023-01-23T08:46:14;0.50;93.30
4755;DHT22;2391;47.212;7.542;2023-01-23T08:48:40;0.40;93.30
4755;DHT22;2391;47.212;7.542;2023-01-23T08:51:12;0.30;93.40
4755;DHT22;2391;47.212;7.542;2023-01-23T08:53:37;0.30;93.60
4755;DHT22;2391;47.212;7.542;2023-01-23T08:56:06;0.20;93.60
4755;DHT22;2391;47.212;7.542;2023-01-23T08:58:32;0.30;93.80
4755;DHT22;2391;47.212;7.542;2023-01-23T09:00:58;0.40;93.70
4755;DHT22;2391;47.212;7.542;2023-01-23T09:03:25;0.40;93.70
4755;DHT22;2391;47.212;7.542;2023-01-23T09:05:51;0.30;93.70
4755;DHT22;2391;47.212;7.542;2023-01-23T09:08:17;0.30;93.70
4755;DHT22;2391;47.212;7.542;2023-01-23T09:10:43;0.30;93.70
4755;DHT22;2391;47.212;7.542;2023-01-23T09:13:09;0.30;93.80
4755;DHT22;2391;47.212;7.542;2023-01-23T09:15:37;0.30;93.70
4755;DHT22;2391;47.212;7.542;2023-01-23T09:18:04;0.30;93.90
4755;DHT22;2391;47.212;7.542;2023-01-23T09:20:30;0.30;93.90
4755;DHT22;2391;47.212;7.542;2023-01-23T09:22:56;0.40;93.80
4755;DHT22;2391;47.212;7.542;2023-01-23T09:25:22;0.40;93.50
4755;DHT22;2391;47.212;7.542;2023-01-23T09:27:48;0.30;93.60
4755;DHT22;2391;47.212;7.542;2023-01-23T09:30:14;0.30;93.70
4755;DHT22;2391;47.212;7.542;2023-01-23T09:32:40;0.30;93.70
4755;DHT22;2391;47.212;7.542;2023-01-23T09:35:06;0.40;93.70
4755;DHT22;2391;47.212;7.542;2023-01-23T09:37:32;0.40;93.70
4755;DHT22;2391;47.212;7.542;2023-01-23T09:39:59;0.40;93.70
4755;DHT22;2391;47.212;7.542;2023-01-23T09:42:28;0.50;93.80
4755;DHT22;2391;47.212;7.542;2023-01-23T09:44:59;0.50;93.70
4755;DHT22;2391;47.212;7.542;2023-01-23T09:47:43;0.50;93.70
4755;DHT22;2391;47.212;7.542;2023-01-23T09:50:27;0.50;93.70
4755;DHT22;2391;47.212;7.542;2023-01-23T09:53:00;0.50;93.90
4755;DHT22;2391;47.212;7.542;2023-01-23T09:55:41;0.50;93.30
4755;DHT22;2391;47.212;7.542;2023-01-23T09:58:14;0.60;93.40
4755;DHT22;2391;47.212;7.542;2023-01-23T10:00:38;0.60;93.40
4755;DHT22;2391;47.212;7.542;2023-01-23T10:03:12;0.60;93.30
4755;DHT22;2391;47.212;7.542;2023-01-23T10:08:48;0.60;93.40
4755;DHT22;2391;47.212;7.542;2023-01-23T10:11:42;0.60;93.30
4755;DHT22;2391;47.212;7.542;2023-01-23T10:14:20;0.60;93.50
4755;DHT22;2391;47.212;7.542;2023-01-23T10:22:10;0.60;93.80
4755;DHT22;2391;47.212;7.542;2023-01-23T10:24:52;0.60;93.80
4755;DHT22;2391;47.212;7.542;2023-01-23T10:27:21;0.70;93.90
4755;DHT22;2391;47.212;7.542;2023-01-23T10:32:26;0.60;94.00
4755;DHT22;2391;47.212;7.542;2023-01-23T10:42:36;0.70;94.20
4755;DHT22;2391;47.212;7.542;2023-01-23T10:45:03;0.70;94.20
4755;DHT22;2391;47.212;7.542;2023-01-23T10:47:44;0.70;94.30
4755;DHT22;2391;47.212;7.542;2023-01-23T10:50:12;0.80;94.30
4755;DHT22;2391;47.212;7.542;2023-01-23T10:52:43;0.80;94.20
4755;DHT22;2391;47.212;7.542;2023-01-23T10:57:52;0.70;94.30
4755;DHT22;2391;47.212;7.542;2023-01-23T11:03:27;0.70;94.30
4755;DHT22;2391;47.212;7.542;2023-01-23T11:05:59;0.80;94.40
4755;DHT22;2391;47.212;7.542;2023-01-23T11:08:42;0.80;94.40
4755;DHT22;2391;47.212;7.542;2023-01-23T11:11:28;0.80;94.30
4755;DHT22;2391;47.212;7.542;2023-01-23T11:16:33;0.80;94.40
4755;DHT22;2391;47.212;7.542;2023-01-23T11:19:14;0.70;94.50
4755;DHT22;2391;47.212;7.542;2023-01-23T11:21:50;0.70;94.70
4755;DHT22;2391;47.212;7.542;2023-01-23T11:27:00;0.60;94.80
4755;DHT22;2391;47.212;7.542;2023-01-23T11:29:28;0.60;95.00
4755;DHT22;2391;47.212;7.542;2023-01-23T11:32:09;0.60;95.00
4755;DHT22;2391;47.212;7.542;2023-01-23T11:34:37;0.60;95.20
4755;DHT22;2391;47.212;7.542;2023-01-23T11:37:31;0.70;95.10
4755;DHT22;2391;47.212;7.542;2023-01-23T11:42:13;0.80;94.90
4755;DHT22;2391;47.212;7.542;2023-01-23T11:44:40;0.80;94.90
4755;DHT22;2391;47.212;7.542;2023-01-23T12:04:38;1.00;94.90
4755;DHT22;2391;47.212;7.542;2023-01-23T12:18:26;1.10;95.00
4755;DHT22;2391;47.212;7.542;2023-01-23T12:21:11;1.20;95.10
4755;DHT22;2391;47.212;7.542;2023-01-23T12:26:37;1.10;95.10
4755;DHT22;2391;47.212;7.542;2023-01-23T12:32:16;1.10;95.40
4755;DHT22;2391;47.212;7.542;2023-01-23T12:40:11;1.10;95.20
4755;DHT22;2391;47.212;7.542;2023-01-23T12:42:50;1.10;95.30
4755;DHT22;2391;47.212;7.542;2023-01-23T12:45:22;1.20;95.30
4755;DHT22;2391;47.212;7.542;2023-01-23T12:48:07;1.30;95.20
4755;DHT22;2391;47.212;7.542;2023-01-23T12:50:58;1.40;95.10
4755;DHT22;2391;47.212;7.542;2023-01-23T12:53:23;1.40;95.10
4755;DHT22;2391;47.212;7.542;2023-01-23T12:58:39;1.30;95.30
4755;DHT22;2391;47.212;7.542;2023-01-23T13:01:35;1.30;95.50
4755;DHT22;2391;47.212;7.542;2023-01-23T13:04:27;1.30;95.50
4755;DHT22;2391;47.212;7.542;2023-01-23T13:07:19;1.30;95.50
4755;DHT22;2391;47.212;7.542;2023-01-23T13:10:12;1.30;95.50
4755;DHT22;2391;47.212;7.542;2023-01-23T13:12:33;1.30;95.60
4755;DHT22;2391;47.212;7.542;2023-01-23T13:15:20;1.30;95.70
4755;DHT22;2391;47.212;7.542;2023-01-23T13:20:37;1.40;95.60
4755;DHT22;2391;47.212;7.542;2023-01-23T13:28:47;1.30;96.00
4755;DHT22;2391;47.212;7.542;2023-01-23T13:36:46;1.20;96.00
4755;DHT22;2391;47.212;7.542;2023-01-23T13:39:21;1.20;96.00
4755;DHT22;2391;47.212;7.542;2023-01-23T13:42:32;1.20;96.00
4755;DHT22;2391;47.212;7.542;2023-01-23T13:44:27;1.20;96.00
4755;DHT22;2391;47.212;7.542;2023-01-23T13:58:03;1.30;96.00
4755;DHT22;2391;47.212;7.542;2023-01-23T14:00:30;1.30;96.10
4755;DHT22;2391;47.212;7.542;2023-01-23T14:06:07;1.30;96.10
4755;DHT22;2391;47.212;7.542;2023-01-23T14:08:44;1.40;96.10
4755;DHT22;2391;47.212;7.542;2023-01-23T14:11:01;1.30;96.20
4755;DHT22;2391;47.212;7.542;2023-01-23T14:13:27;1.30;96.20
4755;DHT22;2391;47.212;7.542;2023-01-23T14:15:54;1.40;96.10
4755;DHT22;2391;47.212;7.542;2023-01-23T14:18:50;1.40;96.10
4755;DHT22;2391;47.212;7.542;2023-01-23T14:21:22;1.40;96.20
4755;DHT22;2391;47.212;7.542;2023-01-23T14:23:55;1.40;96.20
4755;DHT22;2391;47.212;7.542;2023-01-23T14:26:25;1.40;96.20
4755;DHT22;2391;47.212;7.542;2023-01-23T14:31:23;1.40;96.40
4755;DHT22;2391;47.212;7.542;2023-01-23T14:33:50;1.40;96.30
4755;DHT22;2391;47.212;7.542;2023-01-23T14:36:18;1.50;96.30
4755;DHT22;2391;47.212;7.542;2023-01-23T14:38:46;1.50;96.30
4755;DHT22;2391;47.212;7.542;2023-01-23T14:41:14;1.50;96.20
4755;DHT22;2391;47.212;7.542;2023-01-23T14:43:41;1.50;96.30
4755;DHT22;2391;47.212;7.542;2023-01-23T14:46:20;1.50;96.30
4755;DHT22;2391;47.212;7.542;2023-01-23T14:48:40;1.50;96.50
4755;DHT22;2391;47.212;7.542;2023-01-23T14:51:13;1.50;96.50
4755;DHT22;2391;47.212;7.542;2023-01-23T14:53:40;1.50;96.70
4755;DHT22;2391;47.212;7.542;2023-01-23T14:56:08;1.60;96.60
4755;DHT22;2391;47.212;7.542;2023-01-23T14:58:35;1.60;96.50
4755;DHT22;2391;47.212;7.542;2023-01-23T15:01:02;1.60;96.40
4755;DHT22;2391;47.212;7.542;2023-01-23T15:03:40;1.70;96.50
4755;DHT22;2391;47.212;7.542;2023-01-23T15:06:13;1.70;96.40
4755;DHT22;2391;47.212;7.542;2023-01-23T15:08:39;1.80;96.50
4755;DHT22;2391;47.212;7.542;2023-01-23T15:11:06;1.80;96.40
4755;DHT22;2391;47.212;7.542;2023-01-23T15:13:43;1.70;96.30
4755;DHT22;2391;47.212;7.542;2023-01-23T15:16:18;1.80;96.50
4755;DHT22;2391;47.212;7.542;2023-01-23T15:21:38;1.70;96.50
4755;DHT22;2391;47.212;7.542;2023-01-23T15:24:15;1.60;96.60
4755;DHT22;2391;47.212;7.542;2023-01-23T15:26:41;1.70;96.60
4755;DHT22;2391;47.212;7.542;2023-01-23T15:39:29;1.80;96.50
4755;DHT22;2391;47.212;7.542;2023-01-23T15:42:01;1.80;96.90
4755;DHT22;2391;47.212;7.542;2023-01-23T15:44:29;1.80;96.60
4755;DHT22;2391;47.212;7.542;2023-01-23T15:46:56;1.80;96.70
4755;DHT22;2391;47.212;7.542;2023-01-23T15:49:28;1.80;96.70
4755;DHT22;2391;47.212;7.542;2023-01-23T15:52:00;1.90;96.70
4755;DHT22;2391;47.212;7.542;2023-01-23T15:54:32;1.80;96.70
4755;DHT22;2391;47.212;7.542;2023-01-23T15:56:59;1.80;96.70
4755;DHT22;2391;47.212;7.542;2023-01-23T15:59:25;1.90;96.70
4755;DHT22;2391;47.212;7.542;2023-01-23T16:01:51;1.90;96.60
4755;DHT22;2391;47.212;7.542;2023-01-23T16:04:17;1.90;96.60
4755;DHT22;2391;47.212;7.542;2023-01-23T16:06:44;1.90;96.80
4755;DHT22;2391;47.212;7.542;2023-01-23T16:09:22;1.90;96.60
4755;DHT22;2391;47.212;7.542;2023-01-23T16:11:45;1.90;96.70
4755;DHT22;2391;47.212;7.542;2023-01-23T16:14:14;1.80;96.70
4755;DHT22;2391;47.212;7.542;2023-01-23T16:16:40;1.80;96.70
4755;DHT22;2391;47.212;7.542;2023-01-23T16:19:06;1.80;96.70
4755;DHT22;2391;47.212;7.542;2023-01-23T16:21:31;1.90;96.80
4755;DHT22;2391;47.212;7.542;2023-01-23T16:23:58;1.90;96.80
4755;DHT22;2391;47.212;7.542;2023-01-23T16:26:25;1.90;96.80
4755;DHT22;2391;47.212;7.542;2023-01-23T16:28:53;1.90;96.90
4755;DHT22;2391;47.212;7.542;2023-01-23T16:31:19;1.90;96.90
4755;DHT22;2391;47.212;7.542;2023-01-23T16:33:45;1.80;96.90
4755;DHT22;2391;47.212;7.542;2023-01-23T16:36:15;1.90;97.00
4755;DHT22;2391;47.212;7.542;2023-01-23T16:38:46;1.90;97.00
4755;DHT22;2391;47.212;7.542;2023-01-23T16:41:11;1.90;97.00
4755;DHT22;2391;47.212;7.542;2023-01-23T16:43:37;1.90;97.00
4755;DHT22;2391;47.212;7.542;2023-01-23T16:46:03;1.90;97.00
4755;DHT22;2391;47.212;7.542;2023-01-23T16:48:28;1.90;97.10
4755;DHT22;2391;47.212;7.542;2023-01-23T16:50:58;1.90;97.10
4755;DHT22;2391;47.212;7.542;2023-01-23T16:55:55;2.00;97.10
4755;DHT22;2391;47.212;7.542;2023-01-23T16:58:24;2.00;97.10
4755;DHT22;2391;47.212;7.542;2023-01-23T17:00:57;2.00;97.20
4755;DHT22;2391;47.212;7.542;2023-01-23T17:03:25;2.00;97.20
4755;DHT22;2391;47.212;7.542;2023-01-23T17:05:52;2.00;97.20
4755;DHT22;2391;47.212;7.542;2023-01-23T17:08:22;2.00;97.20
4755;DHT22;2391;47.212;7.542;2023-01-23T17:10:51;2.00;97.20
4755;DHT22;2391;47.212;7.542;2023-01-23T17:13:19;2.00;97.30
4755;DHT22;2391;47.212;7.542;2023-01-23T17:15:53;2.00;97.30
4755;DHT22;2391;47.212;7.542;2023-01-23T17:18:22;2.00;97.30
4755;DHT22;2391;47.212;7.542;2023-01-23T17:20:49;2.10;97.40
4755;DHT22;2391;47.212;7.542;2023-01-23T17:23:15;2.10;97.30
4755;DHT22;2391;47.212;7.542;2023-01-23T17:25:41;2.10;97.30
4755;DHT22;2391;47.212;7.542;2023-01-23T17:28:08;2.10;97.30
4755;DHT22;2391;47.212;7.542;2023-01-23T17:30:34;2.10;97.40
4755;DHT22;2391;47.212;7.542;2023-01-23T17:33:00;2.20;97.40
4755;DHT22;2391;47.212;7.542;2023-01-23T17:35:32;2.20;97.40
4755;DHT22;2391;47.212;7.542;2023-01-23T17:37:59;2.20;97.30
4755;DHT22;2391;47.212;7.542;2023-01-23T17:40:25;2.30;97.30
4755;DHT22;2391;47.212;7.542;2023-01-23T17:42:51;2.30;97.30
4755;DHT22;2391;47.212;7.542;2023-01-23T17:45:20;2.30;97.20
4755;DHT22;2391;47.212;7.542;2023-01-23T17:47:49;2.40;97.20
4755;DHT22;2391;47.212;7.542;2023-01-23T17:50:20;2.40;97.10
4755;DHT22;2391;47.212;7.542;2023-01-23T17:52:47;2.50;97.10
4755;DHT22;2391;47.212;7.542;2023-01-23T17:55:19;2.40;97.10
4755;DHT22;2391;47.212;7.542;2023-01-23T17:57:45;2.40;97.20
4755;DHT22;2391;47.212;7.542;2023-01-23T18:00:14;2.30;97.20
4755;DHT22;2391;47.212;7.542;2023-01-23T18:02:45;2.40;97.20
4755;DHT22;2391;47.212;7.542;2023-01-23T18:05:13;2.50;97.20
4755;DHT22;2391;47.212;7.542;2023-01-23T18:07:39;2.50;97.10
4755;DHT22;2391;47.212;7.542;2023-01-23T18:10:07;2.40;97.20
4755;DHT22;2391;47.212;7.542;2023-01-23T18:15:33;2.40;97.30
4755;DHT22;2391;47.212;7.542;2023-01-23T18:20:37;2.60;97.30
4755;DHT22;2391;47.212;7.542;2023-01-23T18:23:04;2.60;97.20
4755;DHT22;2391;47.212;7.542;2023-01-23T18:25:31;2.70;97.10
4755;DHT22;2391;47.212;7.542;2023-01-23T18:28:00;2.70;97.10
4755;DHT22;2391;47.212;7.542;2023-01-23T18:30:45;2.70;97.10
4755;DHT22;2391;47.212;7.542;2023-01-23T18:33:36;2.70;97.10
4755;DHT22;2391;47.212;7.542;2023-01-23T18:39:36;2.70;97.20
4755;DHT22;2391;47.212;7.542;2023-01-23T18:42:21;2.70;97.20
4755;DHT22;2391;47.212;7.542;2023-01-23T18:45:00;2.70;97.20